ADDS METAR Data INFO
IDs: Format: Raw Decoded Include TAF

Data at: 0842 UTC 27 Jun 2017

KJSO 270835Z AUTO 00000KT 10SM OVC070 22/22 A3006 RMK AO2 T02300220
KJSO 270815Z AUTO 00000KT 10SM OVC070 23/22 A3006 RMK AO2 T02310220
KJSO 270755Z AUTO 18003KT 10SM OVC070 23/22 A3007 RMK AO2 T02330220
KJSO 270735Z AUTO 17004KT 10SM BKN070 23/22 A3007 RMK AO2 T02350221
KJSO 270715Z AUTO 17003KT 10SM SCT070 23/22 A3008 RMK AO2 T02350222
KJSO 270655Z AUTO 00000KT 10SM CLR 23/22 A3008 RMK AO2 T02330221
KJSO 270635Z AUTO 00000KT 10SM CLR 23/22 A3008 RMK AO2 T02350221
KJSO 270615Z AUTO 00000KT 10SM CLR 23/22 A3008 RMK AO2 T02380220
KJSO 270555Z AUTO 00000KT 10SM SCT034 23/21 A3008 RMK AO2 T02400217
KJSO 270535Z AUTO 00000KT 10SM SCT034 23/21 A3008 RMK AO2 T02400215
KJSO 270515Z AUTO 00000KT 10SM CLR 24/21 A3008 RMK AO2 T02450211
KJSO 270455Z AUTO 14004KT 10SM CLR 25/20 A3007 RMK AO2 T02470207
KJSO 270435Z AUTO 13003KT 10SM CLR 25/20 A3007 RMK AO2 T02470205
KJSO 270415Z AUTO 13003KT 10SM CLR 25/20 A3007 RMK AO2 T02470206
KJSO 270355Z AUTO 00000KT 10SM CLR 25/21 A3007 RMK AO2 T02480208
KJSO 270335Z AUTO 00000KT 10SM CLR 25/21 A3007 RMK AO2 T02500210
KJSO 270315Z AUTO 00000KT 10SM CLR 25/21 A3006 RMK AO2 T02510210
KJSO 270255Z AUTO 13003KT 10SM CLR 25/21 A3006 RMK AO2 T02520211
KJSO 270235Z AUTO 13003KT 10SM CLR 25/21 A3005 RMK AO2 T02530212
KJSO 270215Z AUTO 11003KT 10SM CLR 25/21 A3005 RMK AO2 T02540213
KJSO 270155Z AUTO 00000KT 10SM CLR 26/21 A3005 RMK AO2 T02580213
KJSO 270135Z AUTO 00000KT 10SM CLR 26/21 A3005 RMK AO2 T02640210
KJSO 270115Z AUTO 00000KT 10SM CLR 26/21 A3005 RMK AO2 T02670211
KJSO 270055Z AUTO 00000KT 10SM CLR 27/21 A3005 RMK AO2 T02740212
KJSO 270035Z AUTO 08003KT 10SM CLR 28/21 A3005 RMK AO2 T02830210
KJSO 270015Z AUTO 10003KT 10SM CLR 28/21 A3005 RMK AO2 T02870208
KJSO 262355Z AUTO 09004KT 10SM SCT038 28/20 A3005 RMK AO2 T02900202
KJSO 262335Z AUTO 07007KT 10SM SCT038 30/20 A3004 RMK AO2 T02970204
KJSO 262315Z AUTO 05006KT 10SM CLR 30/20 A3004 RMK AO2 T02990205
KJSO 262255Z AUTO 08005KT 10SM SCT035 29/21 A3005 RMK AO2 T02920214
KJSO 262235Z AUTO 10005KT 10SM SCT037 30/21 A3005 RMK AO2 T03010213
KJSO 262215Z AUTO 03004KT 10SM SCT039 29/21 A3006 RMK AO2 T02960210
KJSO 262155Z AUTO 04005KT 10SM SCT050 SCT060 30/21 A3006 RMK AO2 T03030208
KJSO 262135Z AUTO 05004KT 10SM SCT033 SCT043 BKN060 29/21 A3007 RMK AO2 T02950216
KJSO 262115Z AUTO 08004KT 10SM SCT035 SCT060 SCT090 29/21 A3008 RMK AO2 T02970219
KJSO 262055Z AUTO 34003KT 10SM CLR 30/20 A3008 RMK AO2 T02970206
KJSO 262035Z AUTO 08004KT 10SM SCT031 28/21 A3009 RMK AO2 T02910208
KJSO 262015Z AUTO 07005KT 10SM SCT029 SCT034 30/21 A3010 RMK AO2 T02990217
KJSO 261955Z AUTO 00000KT 10SM SCT028 SCT032 SCT038 29/21 A3010 RMK AO2 T02940218
KJSO 261935Z AUTO 06004KT 10SM SCT028 28/22 A3011 RMK AO2 T02890222
KJSO 261915Z AUTO 08004KT 7SM SCT028 28/21 A3012 RMK AO2 T02840214
KJSO 261855Z AUTO 10003KT 10SM CLR 28/21 A3014 RMK AO2 T02830216
KJSO 261835Z AUTO 00000KT 10SM CLR 27/21 A3014 RMK AO2 T02790212
KJSO 261815Z AUTO 05004KT 10SM CLR 27/21 A3014 RMK AO2 T02760211
KJSO 261755Z AUTO 04004KT 10SM SCT095 27/21 A3015 RMK AO2 T02740214
KJSO 261735Z AUTO 09005KT 10SM CLR 27/21 A3016 RMK AO2 T02730215
KJSO 261715Z AUTO 06004KT 10SM SCT090 26/21 A3016 RMK AO2 T02680215
KJSO 261655Z AUTO 00000KT 10SM BKN070 BKN090 25/21 A3017 RMK AO2 T02580209
KJSO 261635Z AUTO 02004KT 10SM OVC060 25/20 A3018 RMK AO2 T02520207
KJSO 261615Z AUTO 00000KT 10SM SCT050 OVC060 25/20 A3018 RMK AO2 T02550204
KJSO 261555Z AUTO 05004KT 10SM BKN050 26/20 A3018 RMK AO2 T02600205
KJSO 261535Z AUTO 07003KT 10SM BKN050 BKN060 26/20 A3018 RMK AO2 T02600204
KJSO 261515Z AUTO 00000KT 10SM SCT050 SCT060 25/20 A3019 RMK AO2 T02520200
KJSO 261455Z AUTO 00000KT 10SM CLR 25/19 A3019 RMK AO2 T02480194
KJSO 261435Z AUTO 00000KT 10SM SCT070 24/19 A3019 RMK AO2 T02420196
KJSO 261415Z AUTO 10005KT 10SM SCT046 BKN070 22/18 A3019 RMK AO2 T02290190
KJSO 261355Z AUTO 11004KT 10SM BKN044 BKN050 OVC085 21/18 A3019 RMK AO2 T02160189
KJSO 261335Z AUTO 09004KT 10SM BKN085 21/18 A3019 RMK AO2 T02120184
KJSO 261315Z AUTO 08004KT 10SM BKN075 21/18 A3018 RMK AO2 T02100183
KJSO 261255Z AUTO 08005KT 10SM BKN075 21/18 A3018 RMK AO2 T02110182
KJSO 261235Z AUTO 06004KT 10SM OVC075 20/18 A3018 RMK AO2 T02020185
KJSO 261215Z AUTO 00000KT 10SM OVC075 20/18 A3017 RMK AO2 T01970183
KJSO 261155Z AUTO 06003KT 10SM SCT075 19/18 A3017 RMK AO2 T01940186
KJSO 261135Z AUTO 00000KT 10SM BKN075 19/18 A3017 RMK AO2 T01910188
KJSO 261115Z AUTO 00000KT 10SM BKN075 19/18 A3017 RMK AO2 T01920190
KJSO 261055Z AUTO 00000KT 10SM CLR 19/18 A3016 RMK AO2 T01950188
KJSO 261035Z AUTO 00000KT 10SM SCT070 20/18 A3016 RMK AO2 T01970188
KJSO 261015Z AUTO 08003KT 10SM BKN070 20/18 A3016 RMK AO2 T01970190
KJSO 260955Z AUTO 12003KT 10SM BKN070 20/18 A3016 RMK AO2 T01990190
KJSO 260935Z AUTO 00000KT 10SM CLR 20/18 A3016 RMK AO2 T01980190
KJSO 260915Z AUTO 10003KT 10SM CLR 20/18 A3017 RMK AO2 T01980191
KJSO 260855Z AUTO 08003KT 10SM CLR 20/18 A3017 RMK AO2 T01970191
KJSO 260835Z AUTO 00000KT 10SM SCT075 20/18 A3018 RMK AO2 T01970191
KJSO 260815Z AUTO 03003KT 10SM BKN075 20/19 A3017 RMK AO2 T02000192
KJSO 260755Z AUTO 03003KT 10SM SCT075 BKN090 20/19 A3017 RMK AO2 T02010192
KJSO 260735Z AUTO 00000KT 10SM BKN075 20/19 A3018 RMK AO2 T02070192
KJSO 260715Z AUTO 09004KT 10SM CLR 21/18 A3017 RMK AO2 T02080191
KJSO 260655Z AUTO 11003KT 10SM CLR 20/18 A3017 RMK AO2 T02060191
KJSO 260635Z AUTO 10004KT 10SM CLR 20/18 A3018 RMK AO2 T02070190
KJSO 260615Z AUTO 10004KT 10SM CLR 20/18 A3018 RMK AO2 T02070190
KJSO 260555Z AUTO 11003KT 10SM CLR 21/18 A3019 RMK AO2 T02110190
KJSO 260535Z AUTO 09005KT 10SM SCT085 21/18 A3019 RMK AO2 T02130190
KJSO 260515Z AUTO 09006KT 10SM SCT085 21/18 A3020 RMK AO2 T02160190
KJSO 260455Z AUTO 09004KT 10SM CLR 21/18 A3019 RMK AO2 T02180190
KJSO 260435Z AUTO 08005KT 10SM CLR 22/18 A3019 RMK AO2 T02210190
KJSO 260415Z AUTO 07004KT 10SM CLR 22/19 A3019 RMK AO2 T02250192
KJSO 260355Z AUTO 08005KT 10SM CLR 22/19 A3019 RMK AO2 T02280192
KJSO 260335Z AUTO 07005KT 10SM SCT044 23/19 A3019 RMK AO2 T02320195
KJSO 260315Z AUTO 07006KT 10SM SCT023 BKN037 OVC046 23/19 A3018 RMK AO2 T02370195
KJSO 260255Z AUTO 08005KT 10SM SCT022 BKN030 OVC041 23/20 A3018 RMK AO2 T02390205
KJSO 260235Z AUTO 08005KT 10SM BKN032 OVC040 23/21 A3017 RMK AO2 T02370210
KJSO 260215Z AUTO 00000KT 10SM SCT034 23/21 A3017 RMK AO2 T02370211
KJSO 260155Z AUTO 09004KT 10SM CLR 23/21 A3016 RMK AO2 T02410210
KJSO 260135Z AUTO 07004KT 10SM SCT033 25/21 A3015 RMK AO2 T02470211
KJSO 260115Z AUTO 09006KT 10SM BKN033 25/21 A3015 RMK AO2 T02550210
KJSO 260055Z AUTO 07004KT 10SM SCT033 26/21 A3014 RMK AO2 T02600211
KJSO 260035Z AUTO 07006KT 10SM SCT027 BKN033 26/21 A3014 RMK AO2 T02610213
KJSO 260015Z AUTO 07007KT 10SM BKN028 26/21 A3015 RMK AO2 T02690211
KJSO 252355Z AUTO 08004KT 10SM SCT028 27/20 A3014 RMK AO2 T02710204
KJSO 252335Z AUTO 05008KT 10SM CLR 27/20 A3014 RMK AO2 T02720203
KJSO 252315Z AUTO 05006KT 10SM SCT027 SCT031 27/20 A3014 RMK AO2 T02720207
KJSO 252255Z AUTO 05007KT 10SM SCT025 27/21 A3015 RMK AO2 T02750211
KJSO 252235Z AUTO 08005KT 10SM SCT025 SCT032 27/21 A3016 RMK AO2 T02790214
KJSO 252215Z AUTO 06007KT 10SM SCT025 SCT032 SCT080 27/21 A3016 RMK AO2 T02760215
KJSO 252155Z AUTO 04006KT 10SM SCT080 BKN090 27/21 A3017 RMK AO2 T02700217
KJSO 252135Z AUTO 09004KT 10SM SCT080 OVC090 26/21 A3018 RMK AO2 T02680217
KJSO 252115Z AUTO 09004KT 10SM SCT024 BKN080 OVC095 26/21 A3019 RMK AO2 T02690214
KJSO 252055Z AUTO 09006KT 10SM BKN095 27/21 A3019 RMK AO2 T02750210


Page loaded:  08:42 UTC  |   01:42 AM Pacific  |   02:42 AM Mountain  |   03:42 AM Central  |   04:42 AM Eastern

 

ADVISORIES

FORECASTS

FORECASTS

OBSERVATIONS

USER TOOLS

ABOUT US